METAR AND TAF INFORMATION
METAR FOR EBFN
ADDS - METARS form results

(0239 UTC 25 September 2022)
Data provider http://aviationweather.gov/metar/data/
 
METAR text: EBFN 250225Z AUTO 07005KT 9999 -RA BKN033/// 12/11 Q1017 BLU
Conditions at: EBFN (KOKSIJDE (BEL-AF, BE) observed 0225 UTC 25 September 2022
Temperature: 12.0°C (54°F)
Dewpoint: 11.0°C (52°F) [RH = 94%]
Pressure (altimeter): 30.03 inches Hg (1017.0 mb)
Winds: from the ENE (70 degrees) at 6 MPH (5 knots; 2.6 m/s)
Visibility: 6 or more miles (10+ km)
Ceiling: 3300 feet AGL
Clouds: broken clouds at 3300 feet AGL
Weather: -RA  (light rain)

METAR text: EBFN 250218Z AUTO 07007KT 2800 +RA BKN031/// 12/11 Q1017 YLO
Conditions at: EBFN (KOKSIJDE (BEL-AF, BE) observed 0218 UTC 25 September 2022
Temperature: 12.0°C (54°F)
Dewpoint: 11.0°C (52°F) [RH = 94%]
Pressure (altimeter): 30.03 inches Hg (1017.0 mb)
Winds: from the ENE (70 degrees) at 8 MPH (7 knots; 3.6 m/s)
Visibility: 1.74 miles (2.80 km)
Ceiling: 3100 feet AGL
Clouds: broken clouds at 3100 feet AGL
Weather: +RA  (heavy rain)

METAR text: EBFN 250155Z AUTO 05004KT 9999 BKN032/// BKN064/// 11/10 Q1017 BLU
Conditions at: EBFN (KOKSIJDE (BEL-AF, BE) observed 0155 UTC 25 September 2022
Temperature: 11.0°C (52°F)
Dewpoint: 10.0°C (50°F) [RH = 94%]
Pressure (altimeter): 30.03 inches Hg (1017.0 mb)
Winds: from the NE (50 degrees) at 5 MPH (4 knots; 2.1 m/s)
Visibility: 6 or more miles (10+ km)
Ceiling: 3200 feet AGL
Clouds: broken clouds at 3200 feet AGL
broken clouds at 6400 feet AGL
Weather: no significant weather observed at this time

Forecast for: EBFN (KOKSIJDE (BEL-AF, BE)
Text: TAF EBFN 241541Z 2419/2507 04015G25KT 9999 FEW020 SCT060
Forecast period: 1900 UTC 24 September 2022 to 0000 UTC 25 September 2022
Forecast type: FROM: standard forecast or significant change
Winds: from the NE (40 degrees) at 17 MPH (15 knots; 7.7 m/s)
gusting to 29 MPH (25 knots; 12.9 m/s)
Visibility: 6 or more miles (10+ km)
Ceiling: at least 12,000 feet AGL
Clouds: few clouds at 2000 feet AGL
scattered clouds at 6000 feet AGL
Weather: no significant weather forecast for this period
Text: BECMG 2424/2502 04008KT SCT020TCU
Forecast period: 0000 to 0700 UTC 25 September 2022
Forecast type: BECOMING: Conditions expected to become as follows by 0200 UTC 25 September 2022
Winds: from the NE (40 degrees) at 9 MPH (8 knots; 4.1 m/s)
Visibility: 6 or more miles (10+ km)
Ceiling: at least 12,000 feet AGL
Clouds: scattered clouds at 2000 feet AGL
Weather: no significant weather forecast for this period
Text: TEMPO 2502/2507 6000 -SHRA SCT015TCU BY EBWM
Forecast period: 0200 to 0700 UTC 25 September 2022
Forecast type: TEMPORARY: The following changes expected for less than half the time period
Visibility: 4 miles (6 km)
Ceiling: at least 12,000 feet AGL
Clouds: scattered clouds at 1500 feet AGL
Weather: -SHRA  (light rain showers)

 AIRPORT MAP

 RUNWAY INFORMATION
Runway 11 Runway length 8786 ft Runway width 164 ft
Runway elevation 14 ft Runway displaced threshold 1526 ft Runway heading 108
Runway 29 Runway length 8786 ft Runway width 164 ft
Runway elevation 20 ft Runway displaced threshold 311 ft Runway heading 288

 AIRPORT FREQUENCIES
Type APP Name APP Frequency 122.5 MHZ
Type EMR Name SAR Frequency 123.1 MHZ
Type EMR Name SAR Frequency 568 MHZ
Type GND Name TAXI Frequency 122.1 MHZ
Type INFO Name BELGA INFO Frequency 129.325 MHZ
Type TWR Name TWR Frequency 122.1 MHZ

 AIRPORT NEAR NAVIGATION AIDS
Type VORTAC Name Koksy Frequency 114500 KHZ